Latest Coastal Weather Observations for Maroochydore

IDQ60701

Issued at 4:12 pm EST Saturday 29 August 2015 (issued every 10 minutes, with the page automatically refreshed every 10 minutes)

About coastal observations | Map of coastal stations | Coastal observations for QLD | Marine services | Other Formats
Station Details ID: 040861 Name: SUNSHINE COAST AIRPORT Lat: -26.60 Lon: 153.09 Height: 3.3 m
Data from the previous 72 hours. | See also: Recent months at Maroochydore
Date/Time
EST
Temp

°C
Wind Pressure Rain
since 9am
mm
Weather Cloud Vis
km
Sea
Height
m
Swell
Dir
 
Speed
knots
Gust
knots
hPa Trend Height
m
Period
s
Dir
29/04:00pm 20.6 SE 5 7 1017.8 - 0.0 - Partly cloudy 10 - - - -
29/03:30pm 21.2 SE 6 8 1017.7 - 0.0 - Cloudy 10 - - - -
29/03:00pm 20.9 SE 7 8 1018.2 - 0.0 - Cloudy 10 - - - -
29/02:30pm 20.9 SE 7 9 1018.7 - 0.0 - Cloudy 10 - - - -
29/02:00pm 21.3 SSE 7 9 1019.1 - 0.0 - Partly cloudy 10 - - - -
29/01:30pm 21.3 SE 6 9 1019.3 - 0.0 - Partly cloudy 10 - - - -
29/01:00pm 20.4 SSE 7 9 1020.2 - 0.0 - Partly cloudy 10 - - - -
29/12:30pm 20.9 SSE 7 10 1020.6 - 0.0 - Partly cloudy 10 - - - -
29/12:00pm 20.7 SSE 9 10 1021.1 - 0.0 - Cloudy 10 - - - -
29/11:30am 22.1 SSE 9 12 1021.3 - 0.0 - Cloudy 10 - - - -
29/11:00am 22.3 SE 8 11 1021.7 - 0.0 - Partly cloudy 10 - - - -
29/10:30am 22.1 SE 8 11 1022.0 - 0.0 - Partly cloudy 10 - - - -
29/10:00am 22.0 SSE 8 11 1022.1 - 0.0 - - 10 - - - -
29/09:30am 21.3 S 7 10 1022.4 - 0.0 - Partly cloudy 10 - - - -
29/09:00am 19.7 S 7 10 1022.5 - 0.0 - Mostly clear 10 - - - -
29/08:30am 19.5 SSW 6 9 1022.4 - 0.0 - Partly cloudy 10 - - - -
29/08:00am 17.8 SW 6 7 1022.3 - 0.0 - Partly cloudy 10 - - - -
29/07:30am 16.1 SW 5 6 1022.1 - 0.0 - Partly cloudy 9 - - - -
29/07:00am 14.8 SW 4 5 1021.8 - 0.0 - - 10 - - - -
29/06:30am 13.7 SW 4 5 1021.8 - 0.0 - - 10 - - - -
29/06:12am 13.6 SW 5 6 1021.6 - 0.0 - Partly cloudy 9 - - - -
29/06:00am 13.7 WSW 6 6 1021.6 - 0.0 - Mostly clear 6 - - - -
29/05:30am 13.7 SW 5 6 1021.0 - 0.0 - Partly cloudy 10 - - - -
29/05:00am 14.2 SW 4 5 1020.9 - 0.0 - Partly cloudy 10 - - - -
29/04:30am 14.3 SW 4 6 1020.6 - 0.0 - Partly cloudy 10 - - - -
29/04:00am 14.8 SW 5 7 1020.4 - 0.0 - Partly cloudy 10 - - - -
29/03:30am 14.9 SW 6 8 1020.8 - 0.0 - Partly cloudy 10 - - - -
29/03:00am 14.7 WSW 6 8 1021.0 - 0.0 - Cloudy 10 - - - -
29/02:30am 14.5 WSW 6 8 1021.2 - 0.0 - Partly cloudy 10 - - - -
29/02:00am 14.5 WSW 8 9 1021.5 - 0.0 - Partly cloudy 10 - - - -
29/01:30am 14.6 SW 7 9 1021.5 - 0.0 - Partly cloudy 10 - - - -
29/01:11am 14.6 SW 7 9 1021.7 - 0.0 - Partly cloudy 10 - - - -
29/01:01am 14.6 SW 7 9 1021.8 - 0.0 - Partly cloudy 6 - - - -
29/01:00am 14.6 SW 7 9 1021.8 - 0.0 - Partly cloudy 7 - - - -
29/12:30am 14.5 WSW 6 8 1021.7 - 0.0 - Partly cloudy 10 - - - -
29/12:00am 14.2 SW 5 7 1021.6 - 0.0 - Partly cloudy 10 - - - -
 
Date/Time
EST
Temp

°C
Wind Pressure Rain
since 9am
mm
Weather Cloud Vis
km
Sea
Height
m
Swell
Dir
 
Speed
knots
Gust
knots
hPa Trend Height
m
Period
s
Dir
28/11:30pm 14.1 WSW 5 6 1021.9 - 0.0 - - 10 - - - -
28/11:00pm 14.2 SW 4 6 1021.9 - 0.0 - - 10 - - - -
28/10:30pm 14.6 SW 6 7 1021.7 - 0.0 - - 10 - - - -
28/10:00pm 14.8 SW 6 7 1021.8 - 0.0 - Partly cloudy 10 - - - -
28/09:30pm 15.4 SW 7 8 1022.1 - 0.0 - Partly cloudy 10 - - - -
28/09:00pm 15.0 WSW 4 5 1022.1 - 0.0 - - 10 - - - -
28/08:30pm 15.4 SW 6 7 1021.9 - 0.0 - - 10 - - - -
28/08:00pm 15.5 WSW 4 6 1021.6 - 0.0 - Partly cloudy 10 - - - -
28/07:30pm 16.3 SSW 5 6 1021.1 - 0.0 - Partly cloudy 10 - - - -
28/07:00pm 18.6 ESE 4 7 1020.6 - 0.0 - - 10 - - - -
28/06:30pm 19.0 ESE 6 9 1019.9 - 0.0 - - 10 - - - -
28/06:00pm 19.0 ESE 6 9 1019.6 - 0.0 - - 10 - - - -
28/05:30pm 19.3 ESE 7 9 1019.2 - 0.0 - - 10 - - - -
28/05:00pm 19.7 E 8 11 1019.0 - 0.0 - - 10 - - - -
28/04:30pm 20.1 ESE 10 14 1018.8 - 0.0 - Partly cloudy 10 - - - -
28/04:00pm 21.1 ESE 10 12 1018.7 - 0.0 - Partly cloudy 10 - - - -
28/03:30pm 20.4 ESE 12 15 1018.6 - 0.0 - Partly cloudy 10 - - - -
28/03:00pm 21.0 ESE 11 15 1018.6 - 0.0 - Partly cloudy 10 - - - -
28/02:30pm 21.8 SE 13 17 1018.7 - 0.0 - - 10 - - - -
28/02:00pm 21.6 SE 11 15 1018.8 - 0.0 - Partly cloudy 10 - - - -
28/01:30pm 20.6 ESE 11 15 1019.1 - 0.0 - Partly cloudy 10 - - - -
28/01:00pm 22.4 SE 11 14 1019.5 - 0.0 - Partly cloudy 10 - - - -
28/12:30pm 21.3 ESE 12 16 1019.8 - 0.0 - Partly cloudy 10 - - - -
28/12:00pm 22.1 ESE 9 12 1020.1 - 0.0 - Mostly cloudy 10 - - - -
28/11:30am 22.0 ESE 10 12 1020.7 - 0.0 - Partly cloudy 10 - - - -
28/11:00am 22.5 ESE 7 9 1021.3 - 0.0 - Partly cloudy 10 - - - -
28/10:30am 21.5 SSW 5 8 1021.8 - 0.0 - Partly cloudy 10 - - - -
28/10:00am 19.9 SW 5 6 1022.0 - 0.0 - Cloudy 10 - - - -
28/09:30am 19.1 S 5 7 1021.9 - 0.0 - Cloudy 10 - - - -
28/09:00am 18.9 SSW 5 8 1021.9 - 13.0 - Cloudy 10 - - - -
28/08:30am 18.3 S 4 5 1022.0 - 13.0 - Partly cloudy 10 - - - -
28/08:00am 17.9 SSW 5 6 1021.6 - 13.0 - Partly cloudy 10 - - - -
28/07:30am 17.2 CALM 0 0 1021.4 - 13.0 - Partly cloudy 10 - - - -
28/07:18am 17.1 CALM 0 0 1021.2 - 13.0 - Partly cloudy 10 - - - -
28/07:14am 16.9 SW 1 3 1021.3 - 13.0 - Partly cloudy 10 - - - -
28/07:00am 16.7 WSW 4 6 1021.2 - 12.8 - Partly cloudy 4 - - - -
28/06:58am 16.7 W 4 6 1021.1 - 12.6 - Partly cloudy 5 - - - -
28/06:31am 16.7 SW 5 6 1020.7 - 11.2 - Partly cloudy 10 - - - -
28/06:30am 16.7 SW 5 6 1020.8 - 11.2 - Partly cloudy 10 - - - -
28/06:19am 16.6 CALM 0 0 1020.5 - 11.2 - Partly cloudy 10 - - - -
28/06:00am 16.5 SW 2 4 1020.1 - 11.2 - Cloudy 10 - - - -
28/05:41am 16.5 WSW 3 4 1020.1 - 11.2 - Partly cloudy 10 - - - -
28/05:30am 16.5 SW 2 4 1020.2 - 11.2 - Cloudy 10 - - - -
28/05:00am 16.5 WSW 4 5 1020.1 - 11.2 - Partly cloudy 10 - - - -
28/04:30am 16.4 W 3 4 1019.6 - 11.0 - Partly cloudy 10 - - - -
28/04:00am 16.2 WNW 3 4 1019.7 - 11.0 - Partly cloudy 10 - - - -
28/03:30am 16.1 CALM 0 0 1019.4 - 11.0 - Partly cloudy 10 - - - -
28/03:00am 16.2 CALM 0 0 1019.4 - 11.0 - Cloudy 10 - - - -
28/02:30am 16.3 SW 3 4 1019.8 - 11.0 - Partly cloudy 10 - - - -
28/02:29am 16.3 SSW 2 4 1019.8 - 11.0 - Partly cloudy 10 - - - -
28/02:00am 16.3 S 2 3 1020.0 - 10.0 - Partly cloudy 4 - - - -
28/01:59am 16.3 S 2 3 1020.0 - 10.0 - Partly cloudy 5 - - - -
28/01:58am 16.3 S 2 3 1020.0 - 9.8 - Partly cloudy 10 - - - -
28/01:42am 16.2 SSW 4 5 1020.4 - 9.2 - Cloudy 6 - - - -
28/01:30am 16.2 SW 5 7 1020.6 - 8.2 - Cloudy 10 - - - -
28/01:00am 16.1 WNW 4 7 1020.4 - 8.2 - Cloudy 10 - - - -
28/12:30am 15.9 CALM 0 0 1020.5 - 8.2 - Cloudy 10 - - - -
28/12:00am 15.8 CALM 0 0 1020.9 - 8.2 - Cloudy 10 - - - -
 
Date/Time
EST
Temp

°C
Wind Pressure Rain
since 9am
mm
Weather Cloud Vis
km
Sea
Height
m
Swell
Dir
 
Speed
knots
Gust
knots
hPa Trend Height
m
Period
s
Dir
27/11:30pm 15.8 WSW 6 7 1021.2 - 8.2 - Cloudy 10 - - - -
27/11:00pm 15.7 W 6 7 1020.9 - 8.2 - Cloudy 10 - - - -
27/10:30pm 15.7 W 3 5 1020.5 - 8.2 - Cloudy 10 - - - -
27/10:00pm 15.8 WSW 4 5 1020.7 - 8.2 - Partly cloudy 10 - - - -
27/09:30pm 15.6 WNW 3 5 1021.1 - 8.2 - Cloudy 10 - - - -
27/09:00pm 15.7 W 2 4 1021.2 - 8.2 - Mostly cloudy 10 - - - -
27/08:30pm 15.7 W 4 6 1021.4 - 8.0 - Cloudy 10 - - - -
27/08:00pm 15.8 WNW 2 4 1021.0 - 8.0 - Partly cloudy 10 - - - -
27/07:30pm 15.9 W 5 7 1021.1 - 8.0 - Partly cloudy 10 - - - -
27/07:00pm 16.1 WNW 5 6 1021.0 - 8.0 - Partly cloudy 10 - - - -
27/06:00pm 16.8 ESE 7 9 1020.4 - 7.8 - Cloudy 10 - - - -
27/05:58pm 16.8 ESE 7 9 1020.3 - 7.8 - Partly cloudy 10 - - - -
27/05:42pm 16.2 SE 5 7 1020.1 - 7.6 - Partly cloudy 6 - - - -
27/05:30pm 15.9 SE 5 7 1020.2 - 6.4 - Partly cloudy 10 - - - -
27/05:00pm 15.9 S 5 7 1020.2 - 5.6 - Partly cloudy 10 - - - -
27/04:30pm 15.7 SSW 10 14 1020.0 - 5.2 - Partly cloudy 10 - - - -
27/04:06pm 15.5 WSW 13 16 1019.9 - 2.8 - Partly cloudy 5 - - - -
27/04:00pm 15.8 SW 16 20 1019.7 - 0.6 - Partly cloudy 10 - - - -
27/03:30pm 19.1 SW 16 23 1019.0 - 0.0 - Partly cloudy 10 - - - -
27/03:26pm 19.7 SW 15 21 1018.9 - 0.0 - Partly cloudy 10 - - - -
27/03:00pm 21.5 E 4 5 1018.6 - 0.0 - Cloudy 10 - - - -
27/02:30pm 22.0 ENE 6 7 1018.7 - 0.0 - Cloudy 10 - - - -
27/02:00pm 22.4 ENE 6 8 1018.7 - 0.0 - Partly cloudy 10 - - - -
27/01:30pm 22.3 NE 5 7 1018.8 - 0.0 - Partly cloudy 10 - - - -
27/01:00pm 21.7 NE 7 8 1019.2 - 0.0 - Cloudy 10 - - - -
27/12:30pm 22.6 NE 6 7 1019.5 - 0.0 - Partly cloudy 10 - - - -
27/12:00pm 22.4 NE 6 8 1019.9 - 0.0 - Cloudy 10 - - - -
27/11:30am 22.1 NE 6 8 1020.4 - 0.0 - Cloudy 10 - - - -
27/11:00am 22.0 NE 5 7 1020.6 - 0.0 - Cloudy 10 - - - -
27/10:30am 21.3 NNE 9 11 1021.0 - 0.0 - Cloudy 10 - - - -
27/10:17am 21.3 NNE 8 9 1021.0 - 0.0 - Cloudy 10 - - - -
27/10:00am 21.2 NE 8 9 1021.0 - 0.0 - Cloudy 10 - - - -
27/09:36am 21.3 NE 7 8 1021.0 - 0.0 - Partly cloudy 10 - - - -
27/09:30am 21.1 NE 7 8 1020.9 - 0.0 - Partly cloudy 10 - - - -
27/09:00am 21.4 SSW 3 6 1020.8 - 0.0 - Mostly clear 10 - - - -
27/08:30am 22.8 WNW 6 10 1021.1 - 0.0 - - 10 - - - -
27/08:00am 20.9 NNW 6 9 1021.1 - 0.0 - - 10 - - - -
27/07:30am 19.8 N 6 7 1020.9 - 0.0 - - 10 - - - -
27/07:00am 19.0 N 6 8 1020.9 - 0.0 - - 10 - - - -
27/06:30am 18.0 N 7 8 1020.6 - 0.0 - - 10 - - - -
27/06:00am 17.6 N 5 6 1020.2 - 0.0 - - 10 - - - -
27/05:30am 17.6 N 5 6 1020.0 - 0.0 - Partly cloudy 10 - - - -
27/05:00am 17.7 NNW 3 4 1019.9 - 0.0 - Partly cloudy 10 - - - -
27/04:30am 17.5 NNW 4 6 1019.9 - 0.0 - - 10 - - - -
27/04:00am 17.6 NNW 6 7 1019.7 - 0.0 - - 10 - - - -
27/03:30am 17.7 CALM 0 1 1019.6 - 0.0 - - 10 - - - -
27/03:00am 17.7 NW 2 4 1019.7 - 0.0 - - 10 - - - -
27/02:30am 17.8 NW 3 5 1020.0 - 0.0 - - 10 - - - -
27/02:00am 17.4 N 4 5 1020.2 - 0.0 - Partly cloudy 10 - - - -
27/01:30am 18.1 NE 4 5 1020.3 - 0.0 - Cloudy 10 - - - -
27/01:00am 17.8 CALM 0 0 1020.5 - 0.0 - - 10 - - - -
27/12:30am 18.2 NW 4 5 1020.7 - 0.0 - - 10 - - - -
27/12:00am 18.6 NNW 6 7 1020.9 - 0.0 - - 10 - - - -
 
Date/Time
EST
Temp

°C
Wind Pressure Rain
since 9am
mm
Weather Cloud Vis
km
Sea
Height
m
Swell
Dir
 
Speed
knots
Gust
knots
hPa Trend Height
m
Period
s
Dir
26/11:30pm 19.2 N 5 8 1021.2 - 0.0 - Cloudy 10 - - - -
26/11:00pm 19.2 N 4 5 1021.3 - 0.0 - Cloudy 10 - - - -
26/10:30pm 19.1 WNW 3 4 1021.3 - 0.0 - Cloudy 10 - - - -
26/10:00pm 19.3 W 5 6 1021.1 - 0.0 - Cloudy 10 - - - -
26/09:30pm 19.4 NNW 8 11 1021.0 - 0.0 - - 10 - - - -
26/09:00pm 18.8 N 5 6 1020.8 - 0.0 - - 10 - - - -
26/08:30pm 19.4 NNW 6 8 1020.7 - 0.0 - - 10 - - - -
26/08:00pm 19.3 NNW 6 8 1020.4 - 0.0 - - 10 - - - -
26/07:30pm 19.6 N 4 5 1020.3 - 0.0 - Partly cloudy 10 - - - -
26/07:00pm 20.7 N 7 9 1019.7 - 0.0 - Partly cloudy 10 - - - -
26/06:30pm 21.0 NE 5 6 1019.3 - 0.0 - Partly cloudy 10 - - - -
26/06:00pm 20.4 NE 5 7 1018.9 - 0.0 - - 10 - - - -
26/05:30pm 20.8 E 5 7 1018.5 - 0.0 - - 10 - - - -
26/05:00pm 21.3 E 7 9 1018.3 - 0.0 - - 10 - - - -
26/04:30pm 21.7 E 6 9 1017.9 - 0.0 - - 10 - - - -

Other Formats:

Comma delimited format used in spreadsheet applications
http://www.bom.gov.au/fwo/IDQ60701/IDQ60701.94569.axf

JavaScript Object Notation format (JSON) in row-major order
http://www.bom.gov.au/fwo/IDQ60701/IDQ60701.94569.json